createdAt,value
2022-12-09T00:02:03.021Z,93.69
2022-12-09T00:04:30.086Z,93.06
2022-12-09T00:06:56.570Z,92.92
2022-12-09T00:09:23.260Z,93.35
2022-12-09T00:11:49.945Z,93.52
2022-12-09T00:14:16.262Z,93.09
2022-12-09T00:16:43.149Z,92.94
2022-12-09T00:19:09.758Z,93.16
2022-12-09T00:21:36.785Z,93.32
2022-12-09T00:24:06.979Z,93.40
2022-12-09T00:26:34.085Z,93.16
2022-12-09T00:29:01.583Z,93.25
2022-12-09T00:31:32.389Z,92.99
2022-12-09T00:34:02.138Z,93.31
2022-12-09T00:36:29.506Z,92.83
2022-12-09T00:38:58.055Z,93.00
2022-12-09T00:41:25.272Z,92.82
2022-12-09T00:43:52.140Z,92.72
2022-12-09T00:46:19.562Z,92.62
2022-12-09T00:48:46.436Z,93.21
2022-12-09T00:51:18.108Z,93.29
2022-12-09T00:53:45.375Z,92.82
2022-12-09T00:56:12.082Z,93.27
2022-12-09T00:58:38.730Z,93.39
2022-12-09T01:01:05.892Z,92.94
2022-12-09T01:03:33.395Z,92.99
2022-12-09T01:06:00.256Z,93.73
2022-12-09T01:08:27.320Z,93.30
2022-12-09T01:10:53.776Z,93.61
2022-12-09T01:13:20.128Z,94.11
2022-12-09T01:15:46.977Z,93.09
2022-12-09T01:18:13.622Z,93.83
2022-12-09T01:20:40.408Z,93.14
2022-12-09T01:23:07.115Z,92.67
2022-12-09T01:25:33.479Z,92.95
2022-12-09T01:27:59.874Z,92.95
2022-12-09T01:30:26.579Z,92.86
2022-12-09T01:32:53.294Z,93.08
2022-12-09T01:35:19.897Z,93.14
2022-12-09T01:37:46.814Z,93.15
2022-12-09T01:40:16.805Z,92.54
2022-12-09T01:42:43.521Z,93.27
2022-12-09T01:45:40.892Z,93.05
2022-12-09T01:48:14.252Z,93.19
2022-12-09T01:50:49.579Z,93.22
2022-12-09T01:53:18.266Z,93.24
2022-12-09T01:55:45.724Z,93.71
2022-12-09T01:58:12.865Z,93.43
2022-12-09T02:00:39.363Z,93.65
2022-12-09T02:03:07.238Z,93.66
2022-12-09T02:05:35.075Z,93.68
2022-12-09T02:08:01.492Z,93.78
2022-12-09T02:10:28.646Z,93.63
2022-12-09T02:13:20.323Z,93.60
2022-12-09T02:15:59.109Z,93.13
2022-12-09T02:18:36.877Z,93.38
2022-12-09T02:21:18.258Z,93.07
2022-12-09T02:23:54.222Z,93.30
2022-12-09T02:26:39.205Z,92.93
2022-12-09T02:29:17.125Z,92.99
2022-12-09T02:32:01.391Z,93.03
2022-12-09T02:34:33.002Z,93.14
2022-12-09T02:37:08.556Z,93.42
2022-12-09T02:39:48.353Z,92.99
2022-12-09T02:42:17.346Z,92.65
2022-12-09T02:44:47.759Z,92.86
2022-12-09T02:47:18.938Z,93.42
2022-12-09T02:49:48.581Z,93.27
2022-12-09T02:52:15.581Z,93.25
2022-12-09T02:54:43.998Z,93.54
2022-12-09T02:57:16.171Z,92.99
2022-12-09T02:59:42.652Z,92.62
2022-12-09T03:02:21.958Z,93.40
2022-12-09T03:04:59.214Z,94.07
2022-12-09T03:07:39.061Z,94.14
2022-12-09T03:10:16.031Z,93.17
2022-12-09T03:12:52.345Z,93.51
2022-12-09T03:15:25.807Z,92.62
2022-12-09T03:17:55.575Z,92.96
2022-12-09T03:20:30.402Z,93.40
2022-12-09T03:23:01.405Z,93.37
2022-12-09T03:25:38.410Z,93.79
2022-12-09T03:28:21.355Z,93.31
2022-12-09T03:30:48.506Z,93.33
2022-12-09T03:33:18.307Z,93.92
2022-12-09T03:35:54.215Z,93.08
2022-12-09T03:38:22.845Z,93.04
2022-12-09T03:41:03.410Z,92.84
2022-12-09T03:43:35.281Z,92.75
2022-12-09T03:46:01.990Z,92.71
2022-12-09T03:48:29.867Z,92.82
2022-12-09T03:51:10.538Z,92.99
2022-12-09T03:53:49.286Z,92.16
2022-12-09T03:56:21.773Z,92.39
2022-12-09T03:58:52.168Z,92.38
2022-12-09T04:01:19.959Z,92.40
2022-12-09T04:03:51.782Z,92.57
2022-12-09T04:06:19.589Z,93.07
2022-12-09T04:08:46.433Z,92.67
2022-12-09T04:11:13.086Z,92.76
2022-12-09T04:13:40.033Z,92.07
2022-12-09T04:16:06.608Z,91.82
2022-12-09T04:18:33.106Z,91.97
2022-12-09T04:21:00.253Z,91.72
2022-12-09T04:23:26.824Z,91.77
2022-12-09T04:25:53.165Z,91.90
2022-12-09T04:28:20.430Z,92.98
2022-12-09T04:30:47.729Z,93.10
2022-12-09T04:33:14.235Z,93.16
2022-12-09T04:35:43.076Z,93.00
2022-12-09T04:38:09.587Z,92.47
2022-12-09T04:40:38.090Z,92.99
2022-12-09T04:43:05.138Z,93.23
2022-12-09T04:45:31.874Z,92.99
2022-12-09T04:47:59.514Z,92.85
2022-12-09T04:50:26.833Z,92.70
2022-12-09T04:52:53.453Z,93.30
2022-12-09T04:55:19.904Z,93.11
2022-12-09T04:57:46.771Z,92.74
2022-12-09T05:00:14.457Z,92.86
2022-12-09T05:02:41.155Z,92.19
2022-12-09T05:05:09.344Z,92.54
2022-12-09T05:07:36.640Z,92.36
2022-12-09T05:10:03.948Z,92.17
2022-12-09T05:12:33.508Z,92.76
2022-12-09T05:15:00.827Z,92.38
2022-12-09T05:17:27.593Z,92.87
2022-12-09T05:19:54.233Z,92.86
2022-12-09T05:22:21.163Z,92.88
2022-12-09T05:24:47.687Z,92.53
2022-12-09T05:27:15.537Z,92.06
2022-12-09T05:29:42.517Z,91.99
2022-12-09T05:32:09.744Z,92.56
2022-12-09T05:34:36.620Z,92.41
2022-12-09T05:37:03.737Z,92.56
2022-12-09T05:39:30.389Z,91.68
2022-12-09T05:41:57.088Z,92.21
2022-12-09T05:44:23.917Z,91.70
2022-12-09T05:46:50.619Z,91.40
2022-12-09T05:49:17.177Z,92.68
2022-12-09T05:51:44.352Z,92.99
2022-12-09T05:54:11.166Z,92.37
2022-12-09T05:56:39.478Z,92.61
2022-12-09T05:59:10.375Z,92.50
2022-12-09T06:01:37.081Z,92.21
2022-12-09T06:04:03.914Z,92.44
2022-12-09T06:06:32.394Z,92.79
2022-12-09T06:09:01.814Z,92.67
2022-12-09T06:11:30.168Z,92.89
2022-12-09T06:13:57.710Z,92.49
2022-12-09T06:16:25.013Z,92.59
2022-12-09T06:18:51.823Z,93.24
2022-12-09T06:21:20.912Z,93.15
2022-12-09T06:23:49.196Z,93.24
2022-12-09T06:26:24.567Z,92.82
2022-12-09T06:28:51.499Z,93.26
2022-12-09T06:31:18.370Z,93.62
2022-12-09T06:33:55.278Z,93.20
2022-12-09T06:36:22.886Z,93.35
2022-12-09T06:38:50.145Z,93.60
2022-12-09T06:41:17.059Z,93.40
2022-12-09T06:43:44.260Z,93.06
2022-12-09T06:46:14.636Z,93.37
2022-12-09T06:48:41.968Z,93.58
2022-12-09T06:51:08.917Z,93.15
2022-12-09T06:53:36.110Z,93.90
2022-12-09T06:56:09.701Z,93.50
2022-12-09T06:58:39.143Z,93.67
2022-12-09T07:01:11.429Z,93.91
2022-12-09T07:03:38.429Z,93.86
2022-12-09T07:06:05.531Z,94.09
2022-12-09T07:08:32.220Z,93.85
2022-12-09T07:10:58.900Z,93.97
2022-12-09T07:13:26.474Z,93.66
2022-12-09T07:15:53.162Z,93.35
2022-12-09T07:18:20.044Z,93.95
2022-12-09T07:20:47.668Z,94.09
2022-12-09T07:23:14.442Z,94.43
2022-12-09T07:25:40.863Z,94.14
2022-12-09T07:28:08.083Z,93.86
2022-12-09T07:30:37.352Z,93.28
2022-12-09T07:33:04.033Z,93.43
2022-12-09T07:35:30.974Z,93.41
2022-12-09T07:37:57.903Z,93.31
2022-12-09T07:40:25.173Z,94.16
2022-12-09T07:42:54.886Z,93.90
2022-12-09T07:45:26.221Z,94.01
2022-12-09T07:47:53.016Z,94.01
2022-12-09T07:50:19.811Z,93.83
2022-12-09T07:52:46.895Z,94.53
2022-12-09T07:55:14.500Z,93.89
2022-12-09T07:57:41.309Z,93.91
2022-12-09T08:00:08.765Z,93.63
2022-12-09T08:02:36.006Z,92.85
2022-12-09T08:05:03.518Z,92.98
2022-12-09T08:07:30.601Z,92.93
2022-12-09T08:09:57.502Z,92.96
2022-12-09T08:12:24.880Z,93.85
2022-12-09T08:14:51.366Z,94.02
2022-12-09T08:17:18.559Z,93.16
2022-12-09T08:19:45.919Z,93.64
2022-12-09T08:22:12.375Z,93.06
2022-12-09T08:24:39.148Z,92.54
2022-12-09T08:27:06.074Z,92.38
2022-12-09T08:29:32.940Z,92.82
2022-12-09T08:31:59.952Z,92.54
2022-12-09T08:34:27.033Z,92.13
2022-12-09T08:36:58.732Z,92.59
2022-12-09T08:39:28.376Z,92.75
2022-12-09T08:41:55.721Z,92.73
2022-12-09T08:44:23.462Z,92.52
2022-12-09T08:46:52.024Z,93.13
2022-12-09T08:49:22.656Z,92.87
2022-12-09T08:51:51.860Z,92.74
2022-12-09T08:54:19.298Z,91.97
2022-12-09T08:56:49.308Z,91.98
2022-12-09T08:59:16.975Z,91.44
2022-12-09T09:01:44.051Z,91.26
2022-12-09T09:04:13.550Z,91.61
2022-12-09T09:06:42.459Z,91.72
2022-12-09T09:09:11.753Z,92.58
2022-12-09T09:11:39.671Z,91.51
2022-12-09T09:14:08.637Z,90.19
2022-12-09T09:16:35.666Z,91.22
2022-12-09T09:19:06.945Z,90.64
2022-12-09T09:21:34.733Z,90.70
2022-12-09T09:24:01.550Z,89.44
2022-12-09T09:26:28.903Z,89.45
2022-12-09T09:28:57.969Z,88.88
2022-12-09T09:31:25.356Z,87.70
2022-12-09T09:33:53.170Z,87.88
2022-12-09T09:36:24.884Z,87.16
2022-12-09T09:38:53.911Z,87.85
2022-12-09T09:41:28.084Z,87.36
2022-12-09T09:43:57.412Z,88.64
2022-12-09T09:46:42.410Z,87.80
2022-12-09T09:49:17.322Z,88.68
2022-12-09T09:51:44.023Z,88.01
2022-12-09T09:54:13.971Z,88.74
2022-12-09T09:56:51.917Z,88.93
2022-12-09T09:59:34.895Z,88.88
2022-12-09T10:02:30.876Z,89.58
2022-12-09T10:05:17.901Z,89.10
2022-12-09T10:07:51.568Z,88.91
2022-12-09T10:10:43.814Z,89.80
2022-12-09T10:13:54.953Z,88.05
2022-12-09T10:16:33.058Z,88.08
2022-12-09T10:19:09.011Z,88.82
2022-12-09T10:21:41.064Z,88.33
2022-12-09T10:24:26.715Z,87.34
2022-12-09T10:27:10.468Z,87.48
2022-12-09T10:29:51.404Z,87.81
2022-12-09T10:32:20.527Z,87.63
2022-12-09T10:34:48.776Z,86.64
2022-12-09T10:37:36.865Z,85.79
2022-12-09T10:40:21.562Z,87.35
2022-12-09T10:43:11.756Z,87.92
2022-12-09T10:46:17.206Z,88.03
2022-12-09T10:48:46.558Z,87.77
2022-12-09T10:51:26.344Z,88.86
2022-12-09T10:54:01.333Z,87.61
2022-12-09T10:56:35.009Z,87.62
2022-12-09T10:59:13.856Z,86.73
2022-12-09T11:01:53.848Z,87.45
2022-12-09T11:04:37.489Z,88.12
2022-12-09T11:07:13.576Z,88.13
2022-12-09T11:10:04.425Z,88.88
2022-12-09T11:12:41.052Z,89.38
2022-12-09T11:15:28.798Z,88.53
2022-12-09T11:18:08.125Z,88.59
2022-12-09T11:20:35.931Z,87.68
2022-12-09T11:23:16.098Z,89.32
2022-12-09T11:25:59.412Z,89.42
2022-12-09T11:28:34.428Z,89.75
2022-12-09T11:33:55.480Z,91.13
2022-12-09T11:36:35.365Z,91.39
2022-12-09T11:39:15.385Z,89.99
2022-12-09T11:42:07.364Z,90.07
2022-12-09T11:44:38.170Z,89.36
2022-12-09T11:47:22.228Z,90.12
2022-12-09T11:49:53.616Z,90.17
2022-12-09T11:52:19.947Z,90.86
2022-12-09T11:54:59.190Z,88.71
2022-12-09T11:57:35.292Z,89.60
2022-12-09T12:00:07.582Z,90.00
2022-12-09T12:02:40.585Z,89.96
2022-12-09T12:05:16.908Z,90.83
2022-12-09T12:07:52.460Z,90.27
2022-12-09T12:10:40.417Z,89.33
2022-12-09T12:13:23.783Z,88.96
2022-12-09T12:16:11.002Z,90.92
2022-12-09T12:18:56.706Z,90.89
2022-12-09T12:21:47.381Z,90.94
2022-12-09T12:24:22.246Z,91.49
2022-12-09T12:27:34.342Z,91.83
2022-12-09T12:30:15.671Z,91.63
2022-12-09T12:34:00.273Z,90.82
2022-12-09T12:36:12.047Z,91.19
2022-12-09T12:39:03.013Z,91.04
2022-12-09T12:42:03.873Z,92.33
2022-12-09T12:45:04.552Z,92.50
2022-12-09T12:47:44.259Z,92.74
2022-12-09T12:50:57.961Z,92.46
2022-12-09T12:53:39.012Z,92.53
2022-12-09T12:56:07.507Z,91.91
2022-12-09T12:58:43.384Z,91.03
2022-12-09T13:01:39.206Z,90.23
2022-12-09T13:04:24.146Z,90.92
2022-12-09T13:07:05.408Z,91.69
2022-12-09T13:09:41.430Z,91.35
2022-12-09T13:12:45.361Z,91.53
2022-12-09T13:15:18.213Z,91.78
2022-12-09T13:17:46.825Z,91.76
2022-12-09T13:20:20.598Z,92.63
2022-12-09T13:22:52.949Z,91.37
2022-12-09T13:25:45.966Z,91.43
2022-12-09T13:28:28.383Z,91.95
2022-12-09T13:30:59.250Z,91.41
2022-12-09T13:33:48.614Z,91.63
2022-12-09T13:36:36.699Z,90.90
2022-12-09T13:39:03.931Z,91.74
2022-12-09T13:41:30.201Z,91.25
2022-12-09T13:44:12.354Z,91.07
2022-12-09T13:46:39.700Z,90.61
2022-12-09T13:49:21.162Z,91.73
2022-12-09T13:51:52.803Z,92.04
2022-12-09T13:54:22.814Z,91.69
2022-12-09T13:57:20.456Z,92.09
2022-12-09T13:59:57.806Z,91.87
2022-12-09T14:02:42.647Z,92.66
2022-12-09T14:05:15.673Z,93.32
2022-12-09T14:07:46.259Z,93.80
2022-12-09T14:10:35.156Z,94.29
2022-12-09T14:13:22.406Z,93.61
2022-12-09T14:16:27.173Z,93.65
2022-12-09T14:18:53.939Z,93.46
2022-12-09T14:21:30.171Z,93.98
2022-12-09T14:24:08.951Z,93.58
2022-12-09T14:26:36.934Z,93.28
2022-12-09T14:29:04.254Z,94.28
2022-12-09T14:32:03.522Z,93.94
2022-12-09T14:34:34.255Z,94.73
2022-12-09T14:37:27.495Z,94.21
2022-12-09T14:40:00.945Z,94.59
2022-12-09T14:42:41.272Z,95.44
2022-12-09T14:45:36.743Z,94.13
2022-12-09T14:48:15.421Z,93.80
2022-12-09T14:50:41.983Z,94.53
2022-12-09T14:53:25.113Z,94.35
2022-12-09T14:55:51.710Z,94.89
2022-12-09T14:58:22.913Z,95.08
2022-12-09T15:01:00.073Z,94.03
2022-12-09T15:03:39.606Z,93.68
2022-12-09T15:06:16.694Z,93.84
2022-12-09T15:08:43.401Z,93.54
2022-12-09T15:11:19.460Z,94.31
2022-12-09T15:13:49.141Z,93.96
2022-12-09T15:16:19.743Z,94.17
2022-12-09T15:18:46.848Z,94.34
2022-12-09T15:21:29.439Z,94.19
2022-12-09T15:23:56.220Z,94.82
2022-12-09T15:26:26.488Z,94.48
2022-12-09T15:28:56.381Z,94.71
2022-12-09T15:31:28.233Z,94.69
2022-12-09T15:34:11.661Z,95.10
2022-12-09T15:36:49.624Z,94.60
2022-12-09T15:39:25.754Z,94.55
2022-12-09T15:42:08.795Z,95.40
2022-12-09T15:44:53.219Z,95.23
2022-12-09T15:47:26.185Z,95.02
2022-12-09T15:49:57.276Z,95.28
2022-12-09T15:52:30.871Z,94.96
2022-12-09T15:54:59.912Z,94.57
2022-12-09T15:57:28.159Z,94.53
2022-12-09T15:59:58.808Z,94.65
2022-12-09T16:02:28.843Z,94.61
2022-12-09T16:05:00.752Z,94.10
2022-12-09T16:07:28.347Z,93.91
2022-12-09T16:10:02.387Z,94.91
2022-12-09T16:12:32.845Z,94.89
2022-12-09T16:14:59.423Z,94.55
2022-12-09T16:17:50.675Z,95.43
2022-12-09T16:20:35.036Z,94.41
2022-12-09T16:23:03.759Z,93.98
2022-12-09T16:25:37.521Z,94.57
2022-12-09T16:28:06.271Z,93.95
2022-12-09T16:30:43.569Z,93.99
2022-12-09T16:33:21.892Z,93.75
2022-12-09T16:36:05.987Z,93.83
2022-12-09T16:38:37.305Z,94.38
2022-12-09T16:41:09.830Z,94.20
2022-12-09T16:43:36.967Z,94.13
2022-12-09T16:46:12.351Z,94.53
2022-12-09T16:48:39.102Z,94.70
2022-12-09T16:51:17.587Z,94.27
2022-12-09T16:53:47.006Z,94.64
2022-12-09T16:56:28.545Z,94.60
2022-12-09T16:58:55.922Z,94.25
2022-12-09T17:01:35.127Z,94.17
2022-12-09T17:04:05.277Z,94.09
2022-12-09T17:06:31.923Z,94.78
2022-12-09T17:08:58.274Z,94.70
2022-12-09T17:11:25.111Z,95.06
2022-12-09T17:13:51.719Z,94.73
2022-12-09T17:16:21.712Z,94.60
2022-12-09T17:18:49.480Z,95.19
2022-12-09T17:21:16.672Z,95.22
2022-12-09T17:23:44.096Z,95.88
2022-12-09T17:26:13.281Z,96.41
2022-12-09T17:28:41.095Z,95.96
2022-12-09T17:31:20.424Z,95.92
2022-12-09T17:33:47.207Z,95.09
2022-12-09T17:36:14.982Z,95.07
2022-12-09T17:38:42.219Z,94.95
2022-12-09T17:41:11.306Z,95.35
2022-12-09T17:43:37.654Z,95.23
2022-12-09T17:46:06.296Z,95.09
2022-12-09T17:48:34.869Z,94.89
2022-12-09T17:51:07.370Z,95.64
2022-12-09T17:53:41.925Z,95.52
2022-12-09T17:56:15.966Z,95.30
2022-12-09T17:58:43.231Z,94.98
2022-12-09T18:01:21.260Z,95.15
2022-12-09T18:03:57.262Z,95.48
2022-12-09T18:06:27.046Z,95.43
2022-12-09T18:08:54.817Z,94.92
2022-12-09T18:11:22.263Z,95.28
2022-12-09T18:13:49.861Z,95.31
2022-12-09T18:16:16.606Z,95.41
2022-12-09T18:18:43.715Z,94.97
2022-12-09T18:21:15.691Z,94.71
2022-12-09T18:23:43.276Z,94.93
2022-12-09T18:26:14.798Z,94.36
2022-12-09T18:28:41.270Z,94.37
2022-12-09T18:31:10.857Z,94.82
2022-12-09T18:33:38.836Z,94.10
2022-12-09T18:36:11.252Z,93.90
2022-12-09T18:38:38.749Z,94.13
2022-12-09T18:41:11.554Z,94.53
2022-12-09T18:43:40.065Z,94.80
2022-12-09T18:46:10.790Z,94.53
2022-12-09T18:48:38.678Z,94.41
2022-12-09T18:51:08.536Z,94.82
2022-12-09T18:53:34.973Z,94.43
2022-12-09T18:56:05.937Z,94.63
2022-12-09T18:59:04.291Z,94.55
2022-12-09T19:01:30.409Z,94.78
2022-12-09T19:03:59.901Z,94.11
2022-12-09T19:06:34.777Z,93.26
2022-12-09T19:09:04.722Z,93.99
2022-12-09T19:11:33.957Z,93.84
2022-12-09T19:14:00.790Z,94.33
2022-12-09T19:16:29.813Z,94.19
2022-12-09T19:18:57.435Z,93.65
2022-12-09T19:21:25.714Z,93.71
2022-12-09T19:23:54.443Z,94.51
2022-12-09T19:26:23.532Z,93.92
2022-12-09T19:28:53.011Z,93.98
2022-12-09T19:31:29.092Z,94.16
2022-12-09T19:34:00.111Z,93.84
2022-12-09T19:36:28.610Z,93.57
2022-12-09T19:38:55.344Z,94.32
2022-12-09T19:41:21.686Z,94.32
2022-12-09T19:43:48.410Z,94.56
2022-12-09T19:46:15.571Z,95.20
2022-12-09T19:48:47.322Z,94.39
2022-12-09T19:51:16.805Z,94.80
2022-12-09T19:53:43.703Z,94.16
2022-12-09T19:56:15.765Z,93.33
2022-12-09T19:58:43.646Z,93.20
2022-12-09T20:01:24.853Z,94.00
2022-12-09T20:03:56.765Z,94.00
2022-12-09T20:06:23.579Z,93.92
2022-12-09T20:08:50.614Z,94.42
2022-12-09T20:11:22.982Z,94.56
2022-12-09T20:13:50.895Z,94.11
2022-12-09T20:16:22.340Z,94.70
2022-12-09T20:18:50.905Z,94.09
2022-12-09T20:21:19.030Z,94.17
2022-12-09T20:23:46.105Z,94.01
2022-12-09T20:26:24.789Z,94.20
2022-12-09T20:28:53.138Z,93.54
2022-12-09T20:31:28.725Z,94.09
2022-12-09T20:33:57.501Z,94.06
2022-12-09T20:36:27.546Z,94.13
2022-12-09T20:38:58.354Z,94.90
2022-12-09T20:41:26.093Z,94.93
2022-12-09T20:43:56.440Z,94.67
2022-12-09T20:46:29.521Z,94.63
2022-12-09T20:48:57.187Z,95.17
2022-12-09T20:51:26.282Z,95.20
2022-12-09T20:53:53.570Z,94.88
2022-12-09T20:56:21.732Z,94.95
2022-12-09T20:58:50.861Z,94.48
2022-12-09T21:01:31.971Z,94.56
2022-12-09T21:03:59.975Z,94.38
2022-12-09T21:06:29.835Z,94.29
2022-12-09T21:08:59.994Z,94.87
2022-12-09T21:11:26.749Z,94.89
2022-12-09T21:13:57.555Z,95.36
2022-12-09T21:16:27.362Z,94.93
2022-12-09T21:18:56.628Z,95.26
2022-12-09T21:21:25.366Z,95.06
2022-12-09T21:23:54.212Z,94.51
2022-12-09T21:26:23.133Z,94.46
2022-12-09T21:28:50.365Z,94.07
2022-12-09T21:31:20.788Z,94.28
2022-12-09T21:33:49.093Z,94.44
2022-12-09T21:36:18.323Z,94.22
2022-12-09T21:38:45.190Z,94.33
2022-12-09T21:41:14.512Z,94.22
2022-12-09T21:43:41.335Z,94.08
2022-12-09T21:46:14.696Z,93.71
2022-12-09T21:48:41.508Z,93.96
2022-12-09T21:51:09.697Z,93.78
2022-12-09T21:53:36.754Z,93.88
2022-12-09T21:56:05.498Z,94.10
2022-12-09T21:58:32.934Z,93.29
2022-12-09T22:01:00.283Z,93.38
2022-12-09T22:03:26.690Z,93.22
2022-12-09T22:05:58.173Z,93.71
2022-12-09T22:08:25.305Z,93.68
2022-12-09T22:10:51.731Z,94.25
2022-12-09T22:13:18.483Z,94.57
2022-12-09T22:15:44.875Z,94.46
2022-12-09T22:18:11.713Z,94.06
2022-12-09T22:23:24.799Z,94.26
2022-12-09T22:25:51.688Z,94.18
2022-12-09T22:28:17.992Z,93.42
2022-12-09T22:30:44.325Z,93.63
2022-12-09T22:33:11.148Z,93.63
2022-12-09T22:35:37.465Z,94.18
2022-12-09T22:38:10.895Z,93.97
2022-12-09T22:40:40.175Z,94.25
2022-12-09T22:43:06.486Z,94.95
2022-12-09T22:45:35.428Z,94.49
2022-12-09T22:48:03.013Z,93.89
2022-12-09T22:50:29.388Z,93.57
2022-12-09T22:52:56.055Z,93.51
2022-12-09T22:55:22.957Z,93.99
2022-12-09T22:57:51.599Z,93.82
2022-12-09T23:00:17.994Z,93.60
2022-12-09T23:02:44.825Z,93.92
2022-12-09T23:05:11.569Z,93.79
2022-12-09T23:07:37.922Z,93.71
2022-12-09T23:10:05.312Z,93.46
2022-12-09T23:12:31.930Z,93.63
2022-12-09T23:14:58.626Z,93.17
2022-12-09T23:17:24.961Z,93.60
2022-12-09T23:19:51.603Z,93.66
2022-12-09T23:22:18.178Z,93.97
2022-12-09T23:24:44.494Z,94.19
2022-12-09T23:27:11.311Z,94.92
2022-12-09T23:29:37.933Z,95.08
2022-12-09T23:32:04.434Z,95.26
2022-12-09T23:34:31.190Z,95.03
2022-12-09T23:36:57.501Z,94.82
2022-12-09T23:39:23.816Z,94.30
2022-12-09T23:41:50.711Z,93.90
2022-12-09T23:44:18.588Z,94.14
2022-12-09T23:46:45.595Z,94.15
2022-12-09T23:49:12.755Z,93.93
2022-12-09T23:51:41.150Z,93.48
2022-12-09T23:54:09.564Z,93.21
2022-12-09T23:56:40.043Z,93.31
2022-12-09T23:59:09.057Z,93.52
